createdAt,value
2017-05-10T00:00:05.764Z,1008.14
2017-05-10T00:00:31.852Z,1008.17
2017-05-10T00:00:57.927Z,1008.16
2017-05-10T00:01:24.041Z,1008.17
2017-05-10T00:01:50.114Z,1008.17
2017-05-10T00:02:16.231Z,1008.14
2017-05-10T00:02:42.339Z,1008.15
2017-05-10T00:03:08.458Z,1008.12
2017-05-10T00:03:34.597Z,1008.14
2017-05-10T00:04:00.732Z,1008.11
2017-05-10T00:04:26.873Z,1008.14
2017-05-10T00:04:52.984Z,1008.18
2017-05-10T00:05:19.102Z,1008.13
2017-05-10T00:05:45.196Z,1008.12
2017-05-10T00:06:11.301Z,1008.11
2017-05-10T00:06:37.393Z,1008.13
2017-05-10T00:07:03.488Z,1008.14
2017-05-10T00:07:29.574Z,1008.15
2017-05-10T00:07:55.649Z,1008.13
2017-05-10T00:08:21.784Z,1008.07
2017-05-10T00:08:47.927Z,1008.1
2017-05-10T00:09:13.999Z,1008.07
2017-05-10T00:09:40.106Z,1008.07
2017-05-10T00:10:06.244Z,1008.01
2017-05-10T00:10:32.340Z,1008.02
2017-05-10T00:10:58.440Z,1008.03
2017-05-10T00:11:24.559Z,1008.01
2017-05-10T00:11:50.656Z,1007.99
2017-05-10T00:12:16.757Z,1008
2017-05-10T00:12:42.900Z,1008
2017-05-10T00:13:09.030Z,1008.01
2017-05-10T00:13:35.106Z,1007.96
2017-05-10T00:14:01.220Z,1007.98
2017-05-10T00:14:27.310Z,1007.98
2017-05-10T00:14:53.384Z,1007.97
2017-05-10T00:15:19.472Z,1007.97
2017-05-10T00:15:45.565Z,1008
2017-05-10T00:16:11.640Z,1007.99
2017-05-10T00:16:37.724Z,1007.93
2017-05-10T00:17:03.815Z,1007.96
2017-05-10T00:17:29.910Z,1007.96
2017-05-10T00:17:56.015Z,1007.92
2017-05-10T00:18:22.123Z,1007.92
2017-05-10T00:18:48.240Z,1007.9
2017-05-10T00:19:14.379Z,1007.91
2017-05-10T00:19:40.453Z,1007.9
2017-05-10T00:20:06.580Z,1007.9
2017-05-10T00:20:32.672Z,1007.88
2017-05-10T00:20:58.773Z,1007.87
2017-05-10T00:21:24.897Z,1007.89
2017-05-10T00:21:50.988Z,1007.88
2017-05-10T00:22:17.090Z,1007.82
2017-05-10T00:22:43.184Z,1007.86
2017-05-10T00:23:09.306Z,1007.88
2017-05-10T00:23:35.438Z,1007.86
2017-05-10T00:24:01.525Z,1007.86
2017-05-10T00:24:27.598Z,1007.88
2017-05-10T00:24:53.682Z,1007.85
2017-05-10T00:25:19.800Z,1007.85
2017-05-10T00:25:45.897Z,1007.88
2017-05-10T00:26:11.995Z,1007.88
2017-05-10T00:26:38.112Z,1007.87
2017-05-10T00:27:04.220Z,1007.86
2017-05-10T00:27:30.320Z,1007.89
2017-05-10T00:27:56.478Z,1007.82
2017-05-10T00:28:22.586Z,1007.84
2017-05-10T00:28:48.682Z,1007.88
2017-05-10T00:29:14.840Z,1007.86
2017-05-10T00:29:40.940Z,1007.83
2017-05-10T00:30:07.084Z,1007.81
2017-05-10T00:30:33.190Z,1007.82
2017-05-10T00:30:59.288Z,1007.82
2017-05-10T00:31:25.380Z,1007.82
2017-05-10T00:31:51.489Z,1007.79
2017-05-10T00:32:17.566Z,1007.81
2017-05-10T00:32:43.682Z,1007.77
2017-05-10T00:33:09.845Z,1007.8
2017-05-10T00:33:35.917Z,1007.75
2017-05-10T00:34:02.028Z,1007.74
2017-05-10T00:34:28.215Z,1007.77
2017-05-10T00:34:54.315Z,1007.75
2017-05-10T00:35:20.400Z,1007.74
2017-05-10T00:35:46.477Z,1007.76
2017-05-10T00:36:12.611Z,1007.7
2017-05-10T00:36:38.701Z,1007.74
2017-05-10T00:37:04.776Z,1007.69
2017-05-10T00:37:30.901Z,1007.7
2017-05-10T00:37:57.067Z,1007.72
2017-05-10T00:38:23.184Z,1007.68
2017-05-10T00:38:49.264Z,1007.68
2017-05-10T00:39:15.434Z,1007.68
2017-05-10T00:39:41.559Z,1007.71
2017-05-10T00:40:07.679Z,1007.65
2017-05-10T00:40:33.766Z,1007.66
2017-05-10T00:40:59.876Z,1007.66
2017-05-10T00:41:25.969Z,1007.63
2017-05-10T00:41:52.055Z,1007.67
2017-05-10T00:42:18.212Z,1007.64
2017-05-10T00:42:44.380Z,1007.64
2017-05-10T00:43:10.482Z,1007.66
2017-05-10T00:43:36.599Z,1007.61
2017-05-10T00:44:02.719Z,1007.62
2017-05-10T00:44:28.827Z,1007.62
2017-05-10T00:44:54.926Z,1007.62
2017-05-10T00:45:21.059Z,1007.61
2017-05-10T00:45:47.198Z,1007.62
2017-05-10T00:46:13.282Z,1007.62
2017-05-10T00:46:39.409Z,1007.54
2017-05-10T00:47:05.484Z,1007.6
2017-05-10T00:47:31.603Z,1007.57
2017-05-10T00:47:57.728Z,1007.54
2017-05-10T00:48:23.826Z,1007.58
2017-05-10T00:48:49.966Z,1007.58
2017-05-10T00:49:16.102Z,1007.57
2017-05-10T00:49:42.203Z,1007.61
2017-05-10T00:50:08.286Z,1007.59
2017-05-10T00:50:34.404Z,1007.57
2017-05-10T00:51:00.498Z,1007.59
2017-05-10T00:51:26.629Z,1007.59
2017-05-10T00:51:52.712Z,1007.55
2017-05-10T00:52:18.795Z,1007.54
2017-05-10T00:52:44.956Z,1007.58
2017-05-10T00:53:11.054Z,1007.55
2017-05-10T00:53:37.233Z,1007.56
2017-05-10T00:54:03.376Z,1007.54
2017-05-10T00:54:29.468Z,1007.55
2017-05-10T00:54:55.574Z,1007.53
2017-05-10T00:55:21.664Z,1007.52
2017-05-10T00:55:47.741Z,1007.52
2017-05-10T00:56:13.823Z,1007.54
2017-05-10T00:56:39.941Z,1007.51
2017-05-10T00:57:06.039Z,1007.52
2017-05-10T00:57:32.115Z,1007.52
2017-05-10T00:57:58.283Z,1007.53
2017-05-10T00:58:24.438Z,1007.53
2017-05-10T00:58:50.561Z,1007.51
2017-05-10T00:59:16.679Z,1007.53
2017-05-10T00:59:42.790Z,1007.54
2017-05-10T01:00:08.865Z,1007.53
2017-05-10T01:00:34.951Z,1007.54
2017-05-10T01:01:01.043Z,1007.53
2017-05-10T01:01:27.115Z,1007.52
2017-05-10T01:01:53.224Z,1007.51
2017-05-10T01:02:19.316Z,1007.52
2017-05-10T01:02:45.411Z,1007.5
2017-05-10T01:03:11.502Z,1007.49
2017-05-10T01:03:37.640Z,1007.51
2017-05-10T01:04:03.775Z,1007.5
2017-05-10T01:04:29.942Z,1007.47
2017-05-10T01:04:56.014Z,1007.47
2017-05-10T01:05:22.101Z,1007.47
2017-05-10T01:05:48.190Z,1007.47
2017-05-10T01:06:14.289Z,1007.48
2017-05-10T01:06:40.395Z,1007.46
2017-05-10T01:07:06.484Z,1007.45
2017-05-10T01:07:32.584Z,1007.46
2017-05-10T01:07:58.684Z,1007.46
2017-05-10T01:08:24.798Z,1007.46
2017-05-10T01:08:50.885Z,1007.45
2017-05-10T01:09:16.976Z,1007.43
2017-05-10T01:09:43.077Z,1007.41
2017-05-10T01:10:09.184Z,1007.43
2017-05-10T01:10:35.273Z,1007.38
2017-05-10T01:11:01.354Z,1007.39
2017-05-10T01:11:27.449Z,1007.38
2017-05-10T01:11:53.544Z,1007.37
2017-05-10T01:12:19.671Z,1007.34
2017-05-10T01:12:45.744Z,1007.32
2017-05-10T01:13:11.879Z,1007.35
2017-05-10T01:13:37.965Z,1007.36
2017-05-10T01:14:04.093Z,1007.35
2017-05-10T01:14:30.196Z,1007.36
2017-05-10T01:14:56.272Z,1007.33
2017-05-10T01:15:22.365Z,1007.32
2017-05-10T01:15:48.444Z,1007.31
2017-05-10T01:16:14.542Z,1007.29
2017-05-10T01:16:40.681Z,1007.27
2017-05-10T01:17:06.768Z,1007.29
2017-05-10T01:17:32.841Z,1007.26
2017-05-10T01:17:58.973Z,1007.3
2017-05-10T01:18:25.064Z,1007.26
2017-05-10T01:18:51.223Z,1007.26
2017-05-10T01:19:17.331Z,1007.27
2017-05-10T01:19:43.430Z,1007.27
2017-05-10T01:20:09.568Z,1007.3
2017-05-10T01:20:35.701Z,1007.29
2017-05-10T01:21:01.796Z,1007.3
2017-05-10T01:21:27.932Z,1007.24
2017-05-10T01:21:54.071Z,1007.28
2017-05-10T01:22:20.141Z,1007.26
2017-05-10T01:22:46.224Z,1007.28
2017-05-10T01:23:12.366Z,1007.28
2017-05-10T01:23:38.512Z,1007.25
2017-05-10T01:24:04.596Z,1007.28
2017-05-10T01:24:30.739Z,1007.26
2017-05-10T01:24:56.866Z,1007.28
2017-05-10T01:25:22.981Z,1007.25
2017-05-10T01:25:49.053Z,1007.22
2017-05-10T01:26:15.159Z,1007.27
2017-05-10T01:26:41.250Z,1007.27
2017-05-10T01:27:07.326Z,1007.28
2017-05-10T01:27:33.409Z,1007.23
2017-05-10T01:27:59.548Z,1007.24
2017-05-10T01:28:25.651Z,1007.25
2017-05-10T01:28:51.770Z,1007.24
2017-05-10T01:29:17.893Z,1007.27
2017-05-10T01:29:44.024Z,1007.27
2017-05-10T01:30:10.105Z,1007.25
2017-05-10T01:30:36.192Z,1007.23
2017-05-10T01:31:02.272Z,1007.26
2017-05-10T01:31:28.410Z,1007.23
2017-05-10T01:31:54.511Z,1007.21
2017-05-10T01:32:20.587Z,1007.23
2017-05-10T01:32:46.681Z,1007.23
2017-05-10T01:33:12.835Z,1007.24
2017-05-10T01:33:38.956Z,1007.24
2017-05-10T01:34:05.047Z,1007.21
2017-05-10T01:34:31.226Z,1007.25
2017-05-10T01:34:57.323Z,1007.19
2017-05-10T01:35:23.434Z,1007.18
2017-05-10T01:35:49.524Z,1007.18
2017-05-10T01:36:15.653Z,1007.17
2017-05-10T01:36:41.755Z,1007.16
2017-05-10T01:37:07.855Z,1007.14
2017-05-10T01:37:33.945Z,1007.19
2017-05-10T01:38:00.053Z,1007.13
2017-05-10T01:38:26.131Z,1007.15
2017-05-10T01:38:52.236Z,1007.12
2017-05-10T01:39:18.329Z,1007.13
2017-05-10T01:39:44.401Z,1007.11
2017-05-10T01:40:10.553Z,1007.09
2017-05-10T01:40:36.669Z,1007.11
2017-05-10T01:41:02.770Z,1007.11
2017-05-10T01:41:28.853Z,1007.09
2017-05-10T01:41:54.964Z,1007.11
2017-05-10T01:42:21.088Z,1007.08
2017-05-10T01:42:47.186Z,1007.09
2017-05-10T01:43:13.280Z,1007.08
2017-05-10T01:43:39.466Z,1007.09
2017-05-10T01:44:05.571Z,1007.11
2017-05-10T01:44:31.665Z,1007.1
2017-05-10T01:44:57.753Z,1007.09
2017-05-10T01:45:23.825Z,1007.08
2017-05-10T01:45:49.911Z,1007.06
2017-05-10T01:46:15.998Z,1007.04
2017-05-10T01:46:42.094Z,1007.04
2017-05-10T01:47:08.175Z,1007.03
2017-05-10T01:47:34.279Z,1006.98
2017-05-10T01:48:00.413Z,1007.03
2017-05-10T01:48:26.520Z,1007.02
2017-05-10T01:48:52.625Z,1007.02
2017-05-10T01:49:18.751Z,1006.99
2017-05-10T01:49:44.843Z,1007
2017-05-10T01:50:10.955Z,1006.99
2017-05-10T01:50:37.037Z,1007
2017-05-10T01:51:03.157Z,1006.98
2017-05-10T01:51:29.233Z,1006.99
2017-05-10T01:51:55.316Z,1006.94
2017-05-10T01:52:21.430Z,1006.98
2017-05-10T01:52:47.536Z,1006.93
2017-05-10T01:53:13.671Z,1006.94
2017-05-10T01:53:39.766Z,1006.91
2017-05-10T01:54:05.847Z,1006.95
2017-05-10T01:54:32.037Z,1006.94
2017-05-10T01:54:58.137Z,1006.93
2017-05-10T01:55:24.221Z,1006.92
2017-05-10T01:55:50.309Z,1006.92
2017-05-10T01:56:16.456Z,1006.93
2017-05-10T01:56:42.552Z,1006.92
2017-05-10T01:57:08.696Z,1006.91
2017-05-10T01:57:34.802Z,1006.89
2017-05-10T01:58:00.877Z,1006.9
2017-05-10T01:58:26.970Z,1006.91
2017-05-10T01:58:53.093Z,1006.88
2017-05-10T01:59:19.233Z,1006.86
2017-05-10T01:59:45.360Z,1006.86
2017-05-10T02:00:11.480Z,1006.88
2017-05-10T02:00:37.581Z,1006.88
2017-05-10T02:01:03.681Z,1006.85
2017-05-10T02:01:29.777Z,1006.87
2017-05-10T02:01:55.889Z,1006.86
2017-05-10T02:02:21.974Z,1006.82
2017-05-10T02:02:48.122Z,1006.84
2017-05-10T02:03:14.251Z,1006.84
2017-05-10T02:03:40.394Z,1006.83
2017-05-10T02:04:06.472Z,1006.83
2017-05-10T02:04:32.608Z,1006.85
2017-05-10T02:04:58.747Z,1006.85
2017-05-10T02:05:24.837Z,1006.82
2017-05-10T02:05:50.924Z,1006.87
2017-05-10T02:06:17.021Z,1006.85
2017-05-10T02:06:43.112Z,1006.81
2017-05-10T02:07:09.220Z,1006.81
2017-05-10T02:07:35.315Z,1006.83
2017-05-10T02:08:01.426Z,1006.81
2017-05-10T02:08:27.538Z,1006.79
2017-05-10T02:08:53.634Z,1006.79
2017-05-10T02:09:19.720Z,1006.78
2017-05-10T02:09:45.850Z,1006.8
2017-05-10T02:10:11.965Z,1006.78
2017-05-10T02:10:38.080Z,1006.77
2017-05-10T02:11:04.173Z,1006.79
2017-05-10T02:11:30.281Z,1006.71
2017-05-10T02:11:56.372Z,1006.78
2017-05-10T02:12:22.448Z,1006.78
2017-05-10T02:12:48.550Z,1006.76
2017-05-10T02:13:14.637Z,1006.74
2017-05-10T02:13:40.760Z,1006.75
2017-05-10T02:14:06.858Z,1006.72
2017-05-10T02:14:32.952Z,1006.73
2017-05-10T02:14:59.058Z,1006.71
2017-05-10T02:15:25.189Z,1006.73
2017-05-10T02:15:51.285Z,1006.73
2017-05-10T02:16:17.369Z,1006.8
2017-05-10T02:16:43.459Z,1006.76
2017-05-10T02:17:09.535Z,1006.72
2017-05-10T02:17:35.632Z,1006.7
2017-05-10T02:18:01.779Z,1006.72
2017-05-10T02:18:27.860Z,1006.72
2017-05-10T02:18:53.958Z,1006.74
2017-05-10T02:19:20.068Z,1006.72
2017-05-10T02:19:46.178Z,1006.73
2017-05-10T02:20:12.302Z,1006.74
2017-05-10T02:20:38.431Z,1006.71
2017-05-10T02:21:04.527Z,1006.72
2017-05-10T02:21:30.645Z,1006.73
2017-05-10T02:21:56.725Z,1006.73
2017-05-10T02:22:22.863Z,1006.71
2017-05-10T02:22:49.002Z,1006.69
2017-05-10T02:23:15.116Z,1006.71
2017-05-10T02:23:41.255Z,1006.72
2017-05-10T02:24:07.388Z,1006.71
2017-05-10T02:24:33.478Z,1006.71
2017-05-10T02:24:59.569Z,1006.72
2017-05-10T02:25:25.655Z,1006.68
2017-05-10T02:25:51.774Z,1006.73
2017-05-10T02:26:17.892Z,1006.7
2017-05-10T02:26:44.032Z,1006.68
2017-05-10T02:27:10.108Z,1006.66
2017-05-10T02:27:36.208Z,1006.67
2017-05-10T02:28:02.343Z,1006.66
2017-05-10T02:28:28.466Z,1006.66
2017-05-10T02:28:54.593Z,1006.66
2017-05-10T02:29:20.712Z,1006.63
2017-05-10T02:29:46.825Z,1006.63
2017-05-10T02:30:12.933Z,1006.64
2017-05-10T02:30:39.012Z,1006.61
2017-05-10T02:31:05.122Z,1006.62
2017-05-10T02:31:31.215Z,1006.61
2017-05-10T02:31:57.365Z,1006.6
2017-05-10T02:32:23.469Z,1006.59
2017-05-10T02:32:49.548Z,1006.55
2017-05-10T02:33:15.682Z,1006.58
2017-05-10T02:33:41.817Z,1006.58
2017-05-10T02:34:07.891Z,1006.57
2017-05-10T02:34:33.977Z,1006.54
2017-05-10T02:35:00.069Z,1006.58
2017-05-10T02:35:26.139Z,1006.54
2017-05-10T02:35:52.245Z,1006.54
2017-05-10T02:36:18.337Z,1006.48
2017-05-10T02:36:44.438Z,1006.51
2017-05-10T02:37:10.522Z,1006.51
2017-05-10T02:37:36.622Z,1006.52
2017-05-10T02:38:02.733Z,1006.52
2017-05-10T02:38:28.823Z,1006.48
2017-05-10T02:38:54.918Z,1006.44
2017-05-10T02:39:21.029Z,1006.45
2017-05-10T02:39:47.194Z,1006.48
2017-05-10T02:40:13.291Z,1006.44
2017-05-10T02:40:39.390Z,1006.43
2017-05-10T02:41:05.482Z,1006.44
2017-05-10T02:41:31.581Z,1006.44
2017-05-10T02:41:57.657Z,1006.42
2017-05-10T02:42:23.774Z,1006.42
2017-05-10T02:42:49.855Z,1006.43
2017-05-10T02:43:15.958Z,1006.46
2017-05-10T02:43:42.100Z,1006.42
2017-05-10T02:44:08.204Z,1006.44
2017-05-10T02:44:34.322Z,1006.42
2017-05-10T02:45:00.468Z,1006.4
2017-05-10T02:45:26.545Z,1006.42
2017-05-10T02:45:52.637Z,1006.44
2017-05-10T02:46:18.745Z,1006.45
2017-05-10T02:46:44.820Z,1006.4
2017-05-10T02:47:10.908Z,1006.4
2017-05-10T02:47:36.992Z,1006.4
2017-05-10T02:48:03.089Z,1006.42
2017-05-10T02:48:29.202Z,1006.44
2017-05-10T02:48:55.299Z,1006.39
2017-05-10T02:49:21.441Z,1006.4
2017-05-10T02:49:47.546Z,1006.39
2017-05-10T02:50:13.668Z,1006.39
2017-05-10T02:50:39.758Z,1006.39
2017-05-10T02:51:05.873Z,1006.38
2017-05-10T02:51:31.948Z,1006.37
2017-05-10T02:51:58.062Z,1006.38
2017-05-10T02:52:24.178Z,1006.36
2017-05-10T02:52:50.247Z,1006.38
2017-05-10T02:53:16.362Z,1006.35
2017-05-10T02:53:42.502Z,1006.34
2017-05-10T02:54:08.602Z,1006.34
2017-05-10T02:54:34.760Z,1006.38
2017-05-10T02:55:00.834Z,1006.34
2017-05-10T02:55:26.945Z,1006.35
2017-05-10T02:55:53.035Z,1006.36
2017-05-10T02:56:19.130Z,1006.37
2017-05-10T02:56:45.214Z,1006.38
2017-05-10T02:57:11.333Z,1006.37
2017-05-10T02:57:37.426Z,1006.34
2017-05-10T02:58:03.528Z,1006.34
2017-05-10T02:58:29.645Z,1006.29
2017-05-10T02:58:55.795Z,1006.29
2017-05-10T02:59:21.897Z,1006.31
2017-05-10T02:59:48.009Z,1006.28
2017-05-10T03:00:14.112Z,1006.29
2017-05-10T03:00:40.226Z,1006.3
2017-05-10T03:01:06.319Z,1006.3
2017-05-10T03:01:32.425Z,1006.3
2017-05-10T03:01:58.539Z,1006.31
2017-05-10T03:02:24.639Z,1006.29
2017-05-10T03:02:50.757Z,1006.26
2017-05-10T03:03:16.898Z,1006.29
2017-05-10T03:03:43.003Z,1006.27
2017-05-10T03:04:09.081Z,1006.28
2017-05-10T03:04:35.197Z,1006.29
2017-05-10T03:05:01.280Z,1006.26
2017-05-10T03:05:27.412Z,1006.25
2017-05-10T03:05:53.491Z,1006.29
2017-05-10T03:06:19.587Z,1006.24
2017-05-10T03:06:45.707Z,1006.24
2017-05-10T03:07:11.786Z,1006.28
2017-05-10T03:07:37.861Z,1006.23
2017-05-10T03:08:03.972Z,1006.21
2017-05-10T03:08:30.127Z,1006.22
2017-05-10T03:08:56.204Z,1006.24
2017-05-10T03:09:22.370Z,1006.21
2017-05-10T03:09:48.482Z,1006.19
2017-05-10T03:10:14.573Z,1006.2
2017-05-10T03:10:40.680Z,1006.19
2017-05-10T03:11:06.795Z,1006.15
2017-05-10T03:11:32.889Z,1006.18
2017-05-10T03:11:59.017Z,1006.14
2017-05-10T03:12:25.158Z,1006.16
2017-05-10T03:12:51.307Z,1006.15
2017-05-10T03:13:17.406Z,1006.13
2017-05-10T03:13:43.524Z,1006.11
2017-05-10T03:14:09.654Z,1006.12
2017-05-10T03:14:35.753Z,1006.13
2017-05-10T03:15:01.891Z,1006.09
2017-05-10T03:15:28.023Z,1006.07
2017-05-10T03:15:54.097Z,1006.07
2017-05-10T03:16:20.183Z,1006.09
2017-05-10T03:16:46.301Z,1006.07
2017-05-10T03:17:12.399Z,1006.09
2017-05-10T03:17:38.481Z,1006.07
2017-05-10T03:18:04.597Z,1006.05
2017-05-10T03:18:30.707Z,1006.06
2017-05-10T03:18:56.840Z,1006.04
2017-05-10T03:19:22.916Z,1006.02
2017-05-10T03:19:49.027Z,1006.04
2017-05-10T03:20:15.195Z,1006.06
2017-05-10T03:20:41.285Z,1006.04
2017-05-10T03:21:07.390Z,1006.06
2017-05-10T03:21:33.504Z,1006.07
2017-05-10T03:21:59.603Z,1006.05
2017-05-10T03:22:25.692Z,1006.06
2017-05-10T03:22:51.810Z,1006.05
2017-05-10T03:23:17.922Z,1006.06
2017-05-10T03:23:44.033Z,1006.05
2017-05-10T03:24:10.149Z,1006.08
2017-05-10T03:24:36.306Z,1006.02
2017-05-10T03:25:02.442Z,1006
2017-05-10T03:25:28.557Z,1006.07
2017-05-10T03:25:54.661Z,1006.06
2017-05-10T03:26:20.778Z,1006.03
2017-05-10T03:26:46.857Z,1006.01
2017-05-10T03:27:12.954Z,1006.04
2017-05-10T03:27:39.094Z,1006.03
2017-05-10T03:28:05.244Z,1006.03
2017-05-10T03:28:31.336Z,1006.01
2017-05-10T03:28:57.435Z,1005.99
2017-05-10T03:29:23.538Z,1006.01
2017-05-10T03:29:49.626Z,1005.97
2017-05-10T03:30:15.756Z,1006.02
2017-05-10T03:30:41.875Z,1005.98
2017-05-10T03:31:07.994Z,1006.01
2017-05-10T03:31:34.094Z,1006.02
2017-05-10T03:32:00.169Z,1006
2017-05-10T03:32:26.281Z,1006.03
2017-05-10T03:32:52.390Z,1006.03
2017-05-10T03:33:18.523Z,1006.01
2017-05-10T03:33:44.647Z,1006
2017-05-10T03:34:10.725Z,1006.06
2017-05-10T03:34:36.868Z,1005.99
2017-05-10T03:35:02.967Z,1006.02
2017-05-10T03:35:29.044Z,1006.03
2017-05-10T03:35:55.187Z,1006.04
2017-05-10T03:36:21.320Z,1006.01
2017-05-10T03:36:47.414Z,1006.02
2017-05-10T03:37:13.503Z,1006.04
2017-05-10T03:37:39.645Z,1006.04
2017-05-10T03:38:05.739Z,1006
2017-05-10T03:38:31.868Z,1005.99
2017-05-10T03:38:57.996Z,1005.98
2017-05-10T03:39:24.114Z,1005.99
2017-05-10T03:39:50.199Z,1005.99
2017-05-10T03:40:16.275Z,1006
2017-05-10T03:40:42.386Z,1005.98
2017-05-10T03:41:08.477Z,1005.96
2017-05-10T03:41:34.573Z,1005.97
2017-05-10T03:42:00.657Z,1005.97
2017-05-10T03:42:26.771Z,1005.98
2017-05-10T03:42:52.869Z,1005.94
2017-05-10T03:43:18.994Z,1005.96
2017-05-10T03:43:45.109Z,1005.94
2017-05-10T03:44:11.184Z,1005.95
2017-05-10T03:44:37.328Z,1005.93
2017-05-10T03:45:03.443Z,1005.95
2017-05-10T03:45:29.532Z,1005.93
2017-05-10T03:45:55.671Z,1005.96
2017-05-10T03:46:21.744Z,1005.98
2017-05-10T03:46:47.846Z,1005.91
2017-05-10T03:47:13.939Z,1005.94
2017-05-10T03:47:40.020Z,1005.91
2017-05-10T03:48:06.141Z,1005.92
2017-05-10T03:48:32.287Z,1005.91
2017-05-10T03:48:58.365Z,1005.9
2017-05-10T03:49:24.463Z,1005.95
2017-05-10T03:49:50.553Z,1005.92
2017-05-10T03:50:16.650Z,1005.9
2017-05-10T03:50:42.764Z,1005.88
2017-05-10T03:51:08.863Z,1005.89
2017-05-10T03:51:34.961Z,1005.86
2017-05-10T03:52:01.054Z,1005.86
2017-05-10T03:52:27.141Z,1005.91
2017-05-10T03:52:53.260Z,1005.83
2017-05-10T03:53:19.402Z,1005.86
2017-05-10T03:53:45.538Z,1005.84
2017-05-10T03:54:11.629Z,1005.84
2017-05-10T03:54:37.735Z,1005.85
2017-05-10T03:55:03.825Z,1005.82
2017-05-10T03:55:29.897Z,1005.83
2017-05-10T03:55:56.025Z,1005.83
2017-05-10T03:56:22.118Z,1005.83
2017-05-10T03:56:48.214Z,1005.83
2017-05-10T03:57:14.320Z,1005.84
2017-05-10T03:57:40.435Z,1005.81
2017-05-10T03:58:06.583Z,1005.84
2017-05-10T03:58:32.705Z,1005.84
2017-05-10T03:58:58.824Z,1005.83
2017-05-10T03:59:24.930Z,1005.84
2017-05-10T03:59:51.051Z,1005.84
2017-05-10T04:00:17.161Z,1005.82
2017-05-10T04:00:43.244Z,1005.84
2017-05-10T04:01:09.351Z,1005.81
2017-05-10T04:01:35.450Z,1005.82
2017-05-10T04:02:01.526Z,1005.81
2017-05-10T04:02:27.615Z,1005.84
2017-05-10T04:02:53.725Z,1005.82
2017-05-10T04:03:19.846Z,1005.82
2017-05-10T04:03:45.961Z,1005.81
2017-05-10T04:04:12.048Z,1005.83
2017-05-10T04:04:38.119Z,1005.82
2017-05-10T04:05:04.249Z,1005.84
2017-05-10T04:05:30.340Z,1005.83
2017-05-10T04:05:56.450Z,1005.8
2017-05-10T04:06:22.537Z,1005.81
2017-05-10T04:06:48.617Z,1005.81
2017-05-10T04:07:14.733Z,1005.83
2017-05-10T04:07:40.851Z,1005.84
2017-05-10T04:08:06.896Z,1005.79
2017-05-10T04:08:33.004Z,1005.81
2017-05-10T04:08:59.143Z,1005.82
2017-05-10T04:09:25.236Z,1005.83
2017-05-10T04:09:51.320Z,1005.79
2017-05-10T04:10:17.434Z,1005.81
2017-05-10T04:10:43.529Z,1005.82
2017-05-10T04:11:09.610Z,1005.83
2017-05-10T04:11:35.699Z,1005.8
2017-05-10T04:12:01.828Z,1005.79
2017-05-10T04:12:27.919Z,1005.81
2017-05-10T04:12:54.061Z,1005.77
2017-05-10T04:13:20.164Z,1005.78
2017-05-10T04:13:46.299Z,1005.8
2017-05-10T04:14:12.422Z,1005.79
2017-05-10T04:14:38.502Z,1005.8
2017-05-10T04:15:04.617Z,1005.77
2017-05-10T04:15:30.696Z,1005.76
2017-05-10T04:15:56.792Z,1005.79
2017-05-10T04:16:22.909Z,1005.8
2017-05-10T04:16:48.992Z,1005.77
2017-05-10T04:17:15.091Z,1005.75
2017-05-10T04:17:41.204Z,1005.78
2017-05-10T04:18:07.304Z,1005.79
2017-05-10T04:18:33.446Z,1005.74
2017-05-10T04:18:59.575Z,1005.76
2017-05-10T04:19:25.670Z,1005.78
2017-05-10T04:19:51.761Z,1005.77
2017-05-10T04:20:17.845Z,1005.81
2017-05-10T04:20:43.980Z,1005.79
2017-05-10T04:21:10.069Z,1005.8
2017-05-10T04:21:36.153Z,1005.8
2017-05-10T04:22:02.250Z,1005.81
2017-05-10T04:22:28.404Z,1005.8
2017-05-10T04:22:54.546Z,1005.83
2017-05-10T04:23:20.623Z,1005.83
2017-05-10T04:23:46.728Z,1005.81
2017-05-10T04:24:12.804Z,1005.81
2017-05-10T04:24:38.942Z,1005.78
2017-05-10T04:25:05.050Z,1005.81
2017-05-10T04:25:31.125Z,1005.8
2017-05-10T04:25:57.238Z,1005.81
2017-05-10T04:26:23.329Z,1005.77
2017-05-10T04:26:49.402Z,1005.79
2017-05-10T04:27:15.532Z,1005.79
2017-05-10T04:27:41.627Z,1005.8
2017-05-10T04:28:07.722Z,1005.81
2017-05-10T04:28:33.805Z,1005.8
2017-05-10T04:28:59.912Z,1005.84
2017-05-10T04:29:26.045Z,1005.83
2017-05-10T04:29:52.159Z,1005.81
2017-05-10T04:30:18.254Z,1005.79
2017-05-10T04:30:44.363Z,1005.81
2017-05-10T04:31:10.451Z,1005.8
2017-05-10T04:31:36.548Z,1005.79
2017-05-10T04:32:02.673Z,1005.86
2017-05-10T04:32:28.791Z,1005.81
2017-05-10T04:32:54.893Z,1005.8
2017-05-10T04:33:21.009Z,1005.79
2017-05-10T04:33:47.102Z,1005.8
2017-05-10T04:34:13.207Z,1005.79
2017-05-10T04:34:39.319Z,1005.81
2017-05-10T04:35:05.441Z,1005.85
2017-05-10T04:35:31.520Z,1005.82
2017-05-10T04:35:57.611Z,1005.84
2017-05-10T04:36:23.714Z,1005.85
2017-05-10T04:36:49.808Z,1005.84
2017-05-10T04:37:15.903Z,1005.84
2017-05-10T04:37:42.029Z,1005.86
2017-05-10T04:38:08.148Z,1005.82
2017-05-10T04:38:34.261Z,1005.82
2017-05-10T04:39:00.397Z,1005.85
2017-05-10T04:39:26.495Z,1005.83
2017-05-10T04:39:52.583Z,1005.85
2017-05-10T04:40:18.726Z,1005.86
2017-05-10T04:40:44.799Z,1005.84
2017-05-10T04:41:10.907Z,1005.81
2017-05-10T04:41:37.023Z,1005.87
2017-05-10T04:42:03.096Z,1005.85
2017-05-10T04:42:29.179Z,1005.85
2017-05-10T04:42:55.294Z,1005.86
2017-05-10T04:43:21.416Z,1005.88
2017-05-10T04:43:47.531Z,1005.87
2017-05-10T04:44:13.675Z,1005.86
2017-05-10T04:44:39.807Z,1005.89
2017-05-10T04:45:05.900Z,1005.86
2017-05-10T04:45:32.020Z,1005.88
2017-05-10T04:45:58.118Z,1005.86
2017-05-10T04:46:24.214Z,1005.88
2017-05-10T04:46:50.289Z,1005.91
2017-05-10T04:47:16.367Z,1005.92
2017-05-10T04:47:42.487Z,1005.86
2017-05-10T04:48:08.640Z,1005.91
2017-05-10T04:48:34.713Z,1005.89
2017-05-10T04:49:00.853Z,1005.9
2017-05-10T04:49:26.964Z,1005.86
2017-05-10T04:49:53.058Z,1005.9
2017-05-10T04:50:19.171Z,1005.91
2017-05-10T04:50:45.290Z,1005.9
2017-05-10T04:51:11.366Z,1005.9
2017-05-10T04:51:37.448Z,1005.91
2017-05-10T04:52:03.525Z,1005.91
2017-05-10T04:52:29.661Z,1005.93
2017-05-10T04:52:55.817Z,1005.92
2017-05-10T04:53:21.894Z,1005.92
2017-05-10T04:53:48.008Z,1005.94
2017-05-10T04:54:14.148Z,1005.94
2017-05-10T04:54:40.240Z,1005.97
2017-05-10T04:55:06.349Z,1005.96
2017-05-10T04:55:32.463Z,1005.97
2017-05-10T04:55:58.535Z,1005.95
2017-05-10T04:56:24.639Z,1005.96
2017-05-10T04:56:50.741Z,1005.95
2017-05-10T04:57:16.853Z,1005.97
2017-05-10T04:57:42.945Z,1005.96
2017-05-10T04:58:09.015Z,1005.95
2017-05-10T04:58:35.125Z,1006
2017-05-10T04:59:01.268Z,1005.99
2017-05-10T04:59:27.390Z,1005.97
2017-05-10T04:59:53.514Z,1005.99
2017-05-10T05:00:19.631Z,1005.99
2017-05-10T05:00:45.708Z,1006.03
2017-05-10T05:01:11.806Z,1005.99
2017-05-10T05:01:37.926Z,1005.98
2017-05-10T05:02:04.010Z,1006.02
2017-05-10T05:02:30.106Z,1006.02
2017-05-10T05:02:56.266Z,1005.98
2017-05-10T05:03:22.375Z,1006.01
2017-05-10T05:03:48.470Z,1006.02
2017-05-10T05:04:14.609Z,1006.01
2017-05-10T05:04:40.752Z,1005.99
2017-05-10T05:05:06.871Z,1006
2017-05-10T05:05:32.956Z,1006
2017-05-10T05:05:59.049Z,1006
2017-05-10T05:06:25.146Z,1006.04
2017-05-10T05:06:51.250Z,1006.02
2017-05-10T05:07:17.417Z,1006.01
2017-05-10T05:07:43.540Z,1006.04
2017-05-10T05:08:09.652Z,1006.04
2017-05-10T05:08:35.746Z,1006
2017-05-10T05:09:01.856Z,1006
2017-05-10T05:09:27.995Z,1005.99
2017-05-10T05:09:54.070Z,1006.01
2017-05-10T05:10:20.171Z,1006.02
2017-05-10T05:10:46.262Z,1006.01
2017-05-10T05:11:12.339Z,1006.02
2017-05-10T05:11:38.441Z,1005.98
2017-05-10T05:12:04.582Z,1005.98
2017-05-10T05:12:30.663Z,1006
2017-05-10T05:12:56.788Z,1005.99
2017-05-10T05:13:22.949Z,1006
2017-05-10T05:13:49.051Z,1006.03
2017-05-10T05:14:15.170Z,1006.03
2017-05-10T05:14:41.247Z,1006.04
2017-05-10T05:15:07.347Z,1006.04
2017-05-10T05:15:33.463Z,1006.03
2017-05-10T05:15:59.547Z,1005.99
2017-05-10T05:16:25.643Z,1006.04
2017-05-10T05:16:51.779Z,1006.03